Time;durP1;ratioP1;P1;durP2;ratioP2;P2;SDS_P1;SDS_P2;PMS_P1;PMS_P2;Temp;Humidity;BMP_temperature;BMP_pressure;BME280_temperature;BME280_humidity;BME280_pressure;Samples;Min_cycle;Max_cycle;Signal;HPM_P1;HPM_P2
2022/11/11 00:00:34;;;;;;;;;1.00;1.00;;;;;9.12;76.85;101228.34;5006563;28;45726;-75
2022/11/11 00:02:59;;;;;;;;;0.00;0.00;;;;;9.08;76.92;101228.16;5009349;28;45540;-72
2022/11/11 00:05:26;;;;;;;;;1.00;1.00;;;;;9.07;76.67;101231.56;5007782;28;45453;-75
2022/11/11 00:07:52;;;;;;;;;4.00;3.00;;;;;9.07;76.93;101223.72;5007951;28;45425;-75
2022/11/11 00:10:18;;;;;;;;;1.00;1.00;;;;;9.06;76.93;101222.84;5008903;28;45645;-75
2022/11/11 00:12:44;;;;;;;;;0.75;0.75;;;;;9.03;76.41;101211.38;5006696;28;45482;-72
2022/11/11 00:15:10;;;;;;;;;1.00;1.00;;;;;9.03;76.69;101221.81;5009434;28;45422;-74
2022/11/11 00:25:53;;;;;;;;;2.00;1.00;;;;;8.96;77.09;101218.91;5008286;28;45296;-70
2022/11/11 00:28:19;;;;;;;;;0.00;0.00;;;;;8.91;77.24;101217.81;5024440;28;45548;-74
2022/11/11 00:30:45;;;;;;;;;1.00;1.00;;;;;8.91;76.73;101207.41;5010255;28;45266;-75
2022/11/11 00:33:11;;;;;;;;;1.00;1.00;;;;;8.92;76.89;101217.00;5008111;28;45569;-70
2022/11/11 00:35:54;;;;;;;;;0.00;0.00;;;;;8.89;76.88;101209.03;5006570;28;45519;-72
2022/11/11 00:41:05;;;;;;;;;0.00;0.00;;;;;8.87;77.04;101217.59;5008072;28;45461;-80
2022/11/11 00:43:30;;;;;;;;;1.00;0.00;;;;;8.86;76.94;101208.00;5008127;28;45881;-80
2022/11/11 00:50:57;;;;;;;;;0.00;0.00;;;;;8.76;77.08;101199.72;5005551;28;45449;-80
2022/11/11 00:51:26;;;;;;;;;0.50;0.00;;;;;8.79;76.96;101211.13;5007603;28;45974;-81
2022/11/11 00:53:51;;;;;;;;;1.00;1.00;;;;;8.75;77.38;101208.38;5021477;28;45714;-76
2022/11/11 00:56:17;;;;;;;;;0.50;0.00;;;;;8.76;77.08;101202.34;5007922;28;45476;-80
2022/11/11 00:58:43;;;;;;;;;0.00;0.00;;;;;8.76;76.69;101209.28;5006762;28;45554;-80
2022/11/11 01:01:08;;;;;;;;;0.25;0.00;;;;;8.72;76.57;101204.72;5004868;28;45606;-80
2022/11/11 01:03:34;;;;;;;;;0.25;0.25;;;;;8.65;76.68;101202.63;5003508;28;45483;-80
2022/11/11 01:06:01;;;;;;;;;0.00;0.00;;;;;8.65;76.66;101200.03;5006022;28;46121;-80
2022/11/11 01:08:26;;;;;;;;;0.00;0.00;;;;;8.68;76.35;101210.63;5005683;28;45581;-80
2022/11/11 01:10:52;;;;;;;;;0.00;0.00;;;;;8.65;76.84;101205.25;5005293;28;45721;-76
2022/11/11 01:13:20;;;;;;;;;0.00;0.00;;;;;8.62;77.01;101212.94;5011126;28;45552;-76
2022/11/11 01:15:49;;;;;;;;;0.00;0.00;;;;;8.55;77.06;101217.84;5007220;28;46081;-79
2022/11/11 01:18:19;;;;;;;;;0.00;0.00;;;;;8.51;77.48;101220.19;5006713;28;45444;-79
2022/11/11 01:20:45;;;;;;;;;0.00;0.00;;;;;8.49;76.96;101220.13;5021986;28;45504;-80
2022/11/11 01:23:12;;;;;;;;;1.00;0.00;;;;;8.40;78.07;101227.47;5005119;28;45492;-80
2022/11/11 01:25:40;;;;;;;;;0.50;0.00;;;;;8.39;77.52;101232.59;5007455;28;45466;-79
2022/11/11 01:28:07;;;;;;;;;0.00;0.00;;;;;8.29;78.12;101218.22;5006894;28;45454;-80
2022/11/11 01:30:34;;;;;;;;;0.00;0.00;;;;;8.36;77.69;101228.13;5006241;28;45656;-80
2022/11/11 01:33:01;;;;;;;;;0.00;0.00;;;;;8.29;77.07;101220.81;5005668;28;45479;-77
2022/11/11 01:35:27;;;;;;;;;0.25;0.00;;;;;8.34;77.59;101227.16;5004704;28;45982;-72
2022/11/11 01:37:53;;;;;;;;;0.25;0.25;;;;;8.34;77.88;101234.97;5004484;28;45463;-71
2022/11/11 01:40:19;;;;;;;;;0.00;0.00;;;;;8.32;77.56;101236.59;5005738;28;45421;-76
2022/11/11 01:42:50;;;;;;;;;0.25;0.00;;;;;8.30;77.29;101230.44;5005950;28;45437;-77
2022/11/11 01:45:56;;;;;;;;;1.00;0.00;;;;;8.27;78.15;101238.06;5008541;28;46097;-78
2022/11/11 01:51:39;;;;;;;;;0.00;0.00;;;;;8.21;77.80;101230.84;5004813;28;45426;-72
2022/11/11 01:54:10;;;;;;;;;0.00;0.00;;;;;8.24;77.70;101240.53;5021939;28;45579;-74
2022/11/11 01:56:37;;;;;;;;;0.00;0.00;;;;;8.19;78.01;101231.59;5004834;28;46141;-75
2022/11/11 01:59:10;;;;;;;;;0.00;0.00;;;;;8.15;77.98;101223.59;5004562;28;45583;-74
2022/11/11 02:01:36;;;;;;;;;0.00;0.00;;;;;8.18;78.09;101222.91;5002937;28;45457;-77
2022/11/11 02:06:49;;;;;;;;;0.00;0.00;;;;;8.22;78.63;101239.56;5005916;28;46415;-78
2022/11/11 02:09:15;;;;;;;;;0.00;0.00;;;;;8.20;77.86;101234.28;5005410;28;45390;-79
2022/11/11 02:14:50;;;;;;;;;0.00;0.00;;;;;8.13;77.38;101221.75;5031454;28;45669;-79
2022/11/11 02:17:16;;;;;;;;;0.00;0.00;;;;;8.09;77.58;101225.03;5011889;28;45450;-79
2022/11/11 02:19:54;;;;;;;;;0.00;0.00;;;;;8.14;77.81;101229.66;5008828;28;45675;-73
2022/11/11 02:22:37;;;;;;;;;0.00;0.00;;;;;8.14;77.75;101224.44;5009204;28;45418;-77
2022/11/11 02:25:05;;;;;;;;;0.00;0.00;;;;;8.07;77.66;101230.13;5008900;28;45565;-78
2022/11/11 02:27:36;;;;;;;;;0.00;0.00;;;;;8.10;77.70;101222.50;5008206;28;45504;-75
2022/11/11 02:30:04;;;;;;;;;0.00;0.00;;;;;8.05;77.58;101215.28;5006668;28;45873;-73
2022/11/11 02:32:30;;;;;;;;;0.00;0.00;;;;;8.02;77.31;101217.69;5009427;28;45482;-75
2022/11/11 02:34:58;;;;;;;;;0.50;0.50;;;;;8.01;77.65;101215.94;5006361;28;45398;-79
2022/11/11 02:37:26;;;;;;;;;1.00;0.00;;;;;8.09;77.87;101232.81;5026859;28;47785;-78
2022/11/11 02:39:56;;;;;;;;;0.00;0.00;;;;;8.05;77.60;101216.16;5008880;28;45843;-79
2022/11/11 02:42:23;;;;;;;;;0.00;0.00;;;;;8.04;77.22;101221.28;5007251;28;45552;-79
2022/11/11 02:44:48;;;;;;;;;0.00;0.00;;;;;8.06;77.40;101225.78;5009508;28;45667;-77
2022/11/11 02:47:15;;;;;;;;;0.00;0.00;;;;;8.10;77.56;101226.81;5007932;28;46095;-80
2022/11/11 02:49:40;;;;;;;;;0.00;0.00;;;;;8.09;77.56;101235.44;5023845;28;45509;-77
2022/11/11 02:52:06;;;;;;;;;0.00;0.00;;;;;8.05;77.85;101230.88;5011004;28;45524;-77
2022/11/11 02:54:32;;;;;;;;;0.00;0.00;;;;;8.10;77.42;101235.50;5009487;28;45504;-76
2022/11/11 02:57:06;;;;;;;;;0.00;0.00;;;;;8.10;78.05;101221.63;5008217;28;46071;-76
2022/11/11 02:59:32;;;;;;;;;0.00;0.00;;;;;8.08;78.09;101224.13;5025618;28;45569;-76
2022/11/11 03:01:58;;;;;;;;;0.00;0.00;;;;;8.11;78.33;101228.59;5008380;28;45538;-73
2022/11/11 03:04:23;;;;;;;;;1.00;1.00;;;;;8.09;78.29;101219.81;5006631;28;45551;-77
2022/11/11 03:06:49;;;;;;;;;1.00;1.00;;;;;8.05;79.26;101216.16;5010511;28;45659;-74
2022/11/11 03:09:14;;;;;;;;;0.75;0.00;;;;;7.97;79.14;101204.47;5007037;28;45441;-78
2022/11/11 03:11:40;;;;;;;;;0.00;0.00;;;;;7.96;77.96;101197.50;5010976;28;45201;-76
2022/11/11 03:14:07;;;;;;;;;0.00;0.00;;;;;8.05;78.00;101217.88;5007353;28;45232;-79
2022/11/11 03:19:17;;;;;;;;;0.00;0.00;;;;;7.97;77.73;101205.34;5007779;28;45616;-74
2022/11/11 03:21:43;;;;;;;;;1.00;0.00;;;;;7.99;77.60;101212.38;5008750;28;45574;-74
2022/11/11 03:24:08;;;;;;;;;0.00;0.00;;;;;8.04;77.75;101219.59;5007629;28;45372;-78
2022/11/11 03:26:34;;;;;;;;;0.00;0.00;;;;;8.02;77.79;101216.03;5023456;28;45485;-79
2022/11/11 03:29:00;;;;;;;;;0.00;0.00;;;;;8.02;77.88;101217.69;5008530;28;45369;-77
2022/11/11 03:31:25;;;;;;;;;0.25;0.00;;;;;8.01;78.13;101218.53;5024229;28;45561;-79
2022/11/11 03:33:51;;;;;;;;;0.00;0.00;;;;;8.01;78.34;101224.63;5008812;28;45496;-79
2022/11/11 03:36:16;;;;;;;;;0.00;0.00;;;;;7.94;77.97;101212.13;5022482;28;46492;-76
2022/11/11 03:38:42;;;;;;;;;0.00;0.00;;;;;8.03;77.91;101219.50;5005678;28;45436;-78
2022/11/11 03:41:08;;;;;;;;;1.00;0.00;;;;;8.02;77.73;101226.44;5005607;28;45519;-76
2022/11/11 03:43:36;;;;;;;;;0.00;0.00;;;;;7.94;78.27;101227.75;5010445;28;45444;-76
2022/11/11 03:46:04;;;;;;;;;0.00;0.00;;;;;7.90;78.10;101229.28;5007813;28;46034;-76
2022/11/11 03:48:32;;;;;;;;;0.00;0.00;;;;;7.92;77.56;101225.06;5006284;28;45598;-78
2022/11/11 03:50:58;;;;;;;;;0.00;0.00;;;;;7.86;78.03;101208.22;5020981;28;46081;-75
2022/11/11 03:53:23;;;;;;;;;0.75;0.00;;;;;7.81;77.81;101210.59;5006157;28;47014;-75
2022/11/11 03:55:50;;;;;;;;;0.25;0.25;;;;;7.89;78.07;101229.22;5006905;28;46106;-79
2022/11/11 03:58:16;;;;;;;;;0.75;0.00;;;;;7.82;77.74;101209.78;5009138;28;45323;-79
2022/11/11 04:00:43;;;;;;;;;0.00;0.00;;;;;7.82;77.64;101207.19;5005430;28;45391;-78
2022/11/11 04:11:31;;;;;;;;;0.00;0.00;;;;;7.87;77.54;101216.13;5008421;28;45393;-77
2022/11/11 04:16:45;;;;;;;;;1.00;0.00;;;;;7.77;77.77;101196.53;5006092;28;45542;-79
2022/11/11 04:21:55;;;;;;;;;0.25;0.00;;;;;7.85;78.39;101209.06;5007558;28;45544;-78
2022/11/11 04:27:09;;;;;;;;;0.00;0.00;;;;;7.85;78.49;101209.94;5004826;28;45674;-79
2022/11/11 04:29:35;;;;;;;;;1.75;0.50;;;;;7.84;78.84;101208.16;5006814;28;45537;-79
2022/11/11 04:32:34;;;;;;;;;0.00;0.00;;;;;7.82;78.60;101204.59;5006989;28;45503;-77
2022/11/11 04:35:09;;;;;;;;;0.00;0.00;;;;;7.83;78.88;101200.28;5007617;28;45548;-76
2022/11/11 04:37:43;;;;;;;;;0.75;0.00;;;;;7.82;78.67;101190.66;5000820;28;45466;-72
2022/11/11 04:42:53;;;;;;;;;1.00;1.00;;;;;7.79;79.87;101177.53;5005809;28;45551;-71
2022/11/11 04:45:29;;;;;;;;;0.00;0.00;;;;;7.84;79.52;101183.84;5017068;28;45369;-76
2022/11/11 04:48:05;;;;;;;;;0.00;0.00;;;;;7.90;78.74;101192.00;4999851;28;46257;-75
2022/11/11 04:50:33;;;;;;;;;1.00;0.00;;;;;7.89;78.70;101193.66;5003191;28;45380;-75
2022/11/11 04:53:00;;;;;;;;;0.00;0.00;;;;;7.88;78.19;101193.63;5004957;28;45407;-74
2022/11/11 04:58:11;;;;;;;;;0.00;0.00;;;;;7.79;77.83;101182.72;5016513;28;45363;-77
2022/11/11 05:00:37;;;;;;;;;0.00;0.00;;;;;7.83;78.15;101189.88;5006512;28;45405;-74
2022/11/11 05:03:15;;;;;;;;;0.00;0.00;;;;;7.73;77.97;101167.69;4997461;28;45416;-76
2022/11/11 05:11:20;;;;;;;;;0.00;0.00;;;;;7.83;77.99;101184.66;4997118;28;46194;-78
2022/11/11 05:22:06;;;;;;;;;0.00;0.00;;;;;7.80;78.39;101188.03;5016302;28;45609;-75
2022/11/11 05:27:15;;;;;;;;;11.25;10.25;;;;;7.82;78.84;101198.47;4997224;28;45526;-75
2022/11/11 05:29:41;;;;;;;;;1.00;0.00;;;;;7.71;78.23;101192.72;5011887;28;46004;-74
2022/11/11 05:32:07;;;;;;;;;15.75;14.25;;;;;7.64;78.10;101186.34;4996782;28;45723;-73
2022/11/11 05:34:32;;;;;;;;;10.50;10.00;;;;;7.64;79.00;101194.13;5006818;28;45462;-77
2022/11/11 05:36:58;;;;;;;;;17.50;16.00;;;;;7.71;78.78;101205.75;5002061;28;45407;-77
2022/11/11 05:39:23;;;;;;;;;86.33;69.00;;;;;7.67;78.57;101211.59;5002826;28;45343;-75
2022/11/11 05:41:49;;;;;;;;;15.00;13.00;;;;;7.63;78.70;101200.13;5008736;28;45620;-76
2022/11/11 05:44:15;;;;;;;;;35.75;33.25;;;;;7.66;79.15;101200.31;5004413;28;45522;-76
2022/11/11 05:46:40;;;;;;;;;12.00;11.00;;;;;7.72;78.96;101218.81;5005626;28;45423;-70
2022/11/11 05:49:15;;;;;;;;;84.50;67.75;;;;;7.73;78.33;101205.00;5023760;28;46804;-74
2022/11/11 05:51:41;;;;;;;;;8.00;7.25;;;;;7.73;78.48;101209.31;5007412;28;45450;-75
2022/11/11 05:54:07;;;;;;;;;6.00;4.50;;;;;7.61;78.91;101187.88;5013969;28;45639;-71
2022/11/11 05:56:32;;;;;;;;;26.25;25.50;;;;;7.73;78.91;101214.50;5015909;28;45509;-74
2022/11/11 05:58:59;;;;;;;;;2.00;0.75;;;;;7.68;78.60;101208.16;5008591;28;45860;-75
2022/11/11 06:01:25;;;;;;;;;1.50;1.00;;;;;7.75;78.98;101218.09;5011801;28;45411;-76
2022/11/11 06:03:50;;;;;;;;;11.50;11.50;;;;;7.63;78.87;101200.13;5009085;28;45542;-72
2022/11/11 06:06:16;;;;;;;;;19.00;19.00;;;;;7.76;78.80;101212.97;5008384;28;45596;-77
2022/11/11 06:08:41;;;;;;;;;16.75;16.00;;;;;7.78;78.82;101207.84;5005924;28;46193;-76
2022/11/11 06:11:07;;;;;;;;;12.75;12.25;;;;;7.77;78.51;101206.06;5008969;28;45857;-77
2022/11/11 06:13:32;;;;;;;;;1.00;1.00;;;;;7.64;79.19;101209.75;5007291;28;45427;-78
2022/11/11 06:15:59;;;;;;;;;2.50;2.50;;;;;7.65;78.60;101203.72;5010079;28;45486;-75
2022/11/11 06:18:25;;;;;;;;;12.50;11.00;;;;;7.63;78.44;101212.25;5013887;28;45474;-75
2022/11/11 06:20:58;;;;;;;;;4.00;4.00;;;;;7.63;78.32;101194.94;5009110;28;45430;-75
2022/11/11 06:23:25;;;;;;;;;3.25;3.25;;;;;7.64;78.64;101204.53;5008736;28;45538;-78
2022/11/11 06:28:35;;;;;;;;;4.00;3.00;;;;;7.52;79.38;101194.38;5009114;28;45512;-76
2022/11/11 06:31:01;;;;;;;;;4.00;3.25;;;;;7.49;79.56;101193.31;5009419;28;45995;-73
2022/11/11 06:33:27;;;;;;;;;7.50;7.50;;;;;7.61;79.60;101212.16;5011409;28;45481;-74
2022/11/11 06:35:53;;;;;;;;;6.75;5.00;;;;;7.56;79.08;101190.25;5009516;28;45521;-71
2022/11/11 06:38:19;;;;;;;;;4.00;4.00;;;;;7.63;78.93;101200.13;5006999;28;46197;-75
2022/11/11 06:40:45;;;;;;;;;8.25;5.50;;;;;7.55;78.89;101198.84;5022357;28;45501;-74
2022/11/11 06:43:11;;;;;;;;;5.25;2.75;;;;;7.62;78.48;101206.16;5008695;28;45360;-76
2022/11/11 06:45:36;;;;;;;;;24.25;22.50;;;;;7.68;78.95;101211.69;5010203;28;45704;-74
2022/11/11 06:48:05;;;;;;;;;3.00;2.75;;;;;7.71;78.73;101218.75;5012022;28;45769;-74
2022/11/11 06:50:32;;;;;;;;;3.00;2.25;;;;;7.71;78.69;101227.44;5015632;28;45375;-74
2022/11/11 06:53:18;;;;;;;;;11.00;10.25;;;;;7.69;78.80;101229.06;5032530;28;45394;-72
2022/11/11 06:55:43;;;;;;;;;18.75;17.75;;;;;7.72;78.84;101229.22;5018466;28;45447;-72
2022/11/11 06:58:13;;;;;;;;;7.00;7.00;;;;;7.69;78.86;101217.78;5014849;28;45493;-72
2022/11/11 07:00:39;;;;;;;;;5.00;3.00;;;;;7.74;78.58;101224.13;5019553;28;45311;-79
2022/11/11 07:03:08;;;;;;;;;4.50;4.00;;;;;7.82;78.93;101229.69;5010012;28;46238;-78
2022/11/11 07:05:36;;;;;;;;;5.00;5.00;;;;;7.73;79.04;101219.72;5024139;28;45429;-78
2022/11/11 07:08:09;;;;;;;;;4.50;4.00;;;;;7.77;78.76;101230.34;5009639;28;46254;-76
2022/11/11 07:10:46;;;;;;;;;4.50;4.00;;;;;7.87;78.38;101244.72;5008718;28;45767;-78
2022/11/11 07:13:13;;;;;;;;;7.75;7.25;;;;;7.81;77.95;101233.13;5006972;28;46047;-78
2022/11/11 07:15:39;;;;;;;;;4.00;4.00;;;;;7.88;77.93;101235.25;5008613;28;45396;-75
2022/11/11 07:18:05;;;;;;;;;1.00;1.00;;;;;7.76;78.50;101236.38;5005130;28;45831;-77
2022/11/11 07:20:31;;;;;;;;;4.00;4.00;;;;;7.81;78.12;101231.41;5023796;28;47624;-78
2022/11/11 07:22:56;;;;;;;;;4.00;4.00;;;;;7.87;77.51;101236.03;5007100;28;45537;-78
2022/11/11 07:25:22;;;;;;;;;3.00;3.00;;;;;7.88;77.82;101235.25;5026575;28;45504;-78
2022/11/11 07:27:48;;;;;;;;;0.00;0.00;;;;;7.99;78.10;101246.19;5010473;28;45501;-78
2022/11/11 07:30:13;;;;;;;;;32.00;24.75;;;;;7.99;78.05;101244.47;5008607;28;45559;-77
2022/11/11 07:32:50;;;;;;;;;36.50;32.00;;;;;8.11;78.22;101255.50;5006721;28;45440;-78
2022/11/11 07:35:17;;;;;;;;;56.50;44.00;;;;;8.13;77.08;101248.66;5007397;28;45525;-78
2022/11/11 07:37:43;;;;;;;;;10.25;10.25;;;;;8.14;77.38;101260.88;5018856;28;47075;-75
2022/11/11 07:40:11;;;;;;;;;8.25;8.00;;;;;8.19;77.25;101258.50;5013895;28;45513;-71
2022/11/11 07:42:38;;;;;;;;;12.75;12.00;;;;;8.24;76.93;101266.56;5028131;28;45365;-71
2022/11/11 07:45:05;;;;;;;;;22.75;21.25;;;;;8.30;76.97;101266.88;5006514;28;45464;-70
2022/11/11 07:47:30;;;;;;;;;12.75;12.75;;;;;8.37;76.99;101274.16;5005505;28;46498;-72
2022/11/11 07:49:56;;;;;;;;;10.75;8.25;;;;;8.43;76.71;101277.09;5007709;28;45394;-70
2022/11/11 07:52:22;;;;;;;;;9.50;8.25;;;;;8.48;77.11;101262.63;5005015;28;45451;-77
2022/11/11 07:54:49;;;;;;;;;6.75;5.75;;;;;8.65;76.86;101283.38;5007895;28;45989;-71
2022/11/11 07:57:14;;;;;;;;;18.75;16.75;;;;;8.76;76.93;101283.09;5006292;28;46642;-70
2022/11/11 07:59:40;;;;;;;;;107.67;95.67;;;;;8.72;76.74;101272.47;5008109;28;45584;-72
2022/11/11 08:02:09;;;;;;;;;9.00;9.00;;;;;8.88;77.15;101280.19;5006784;28;45518;-72
2022/11/11 08:04:35;;;;;;;;;13.75;10.00;;;;;9.04;77.18;101286.16;5009282;28;45531;-77
2022/11/11 08:07:00;;;;;;;;;4.75;4.50;;;;;9.14;77.61;101268.41;5007341;28;45887;-77
2022/11/11 08:09:26;;;;;;;;;18.50;18.00;;;;;9.23;77.35;101288.81;5008831;28;45465;-77
2022/11/11 08:14:36;;;;;;;;;5.75;5.75;;;;;9.38;77.46;101277.31;5004456;28;45569;-74
2022/11/11 08:17:02;;;;;;;;;7.00;7.00;;;;;9.38;77.61;101267.78;5006848;28;45386;-76
2022/11/11 08:19:28;;;;;;;;;4.25;4.25;;;;;11.08;75.91;101261.16;5006787;28;45470;-76
2022/11/11 08:21:53;;;;;;;;;8.00;8.00;;;;;13.81;67.52;101258.16;5007284;28;45406;-75
2022/11/11 08:24:19;;;;;;;;;4.00;4.00;;;;;15.75;60.41;101254.97;5007559;28;45412;-74
2022/11/11 08:26:44;;;;;;;;;7.00;7.00;;;;;17.05;57.08;101258.13;5007368;28;46060;-70
2022/11/11 08:29:10;;;;;;;;;4.50;4.50;;;;;18.11;54.08;101248.06;5007235;28;45433;-77
2022/11/11 08:31:38;;;;;;;;;4.00;4.00;;;;;18.97;50.33;101240.88;5003237;28;45474;-77
2022/11/11 08:34:03;;;;;;;;;5.00;4.00;;;;;19.47;47.97;101227.00;5003314;28;45476;-77
2022/11/11 08:36:39;;;;;;;;;2.00;2.00;;;;;19.61;48.93;101246.47;5097699;27;45494;-75
2022/11/11 08:39:05;;;;;;;;;2.33;2.00;;;;;20.18;48.39;101233.41;5079854;27;45505;-74
2022/11/11 08:41:31;;;;;;;;;5.00;2.00;;;;;20.81;45.96;101233.47;5076548;27;45623;-77
2022/11/11 08:43:58;;;;;;;;;2.00;2.00;;;;;21.24;46.50;101233.34;5080637;27;45469;-75
2022/11/11 08:46:24;;;;;;;;;1.00;1.00;;;;;21.39;43.94;101228.91;5073423;27;46003;-79
2022/11/11 08:48:50;;;;;;;;;0.33;0.00;;;;;21.39;42.79;101221.81;5072496;27;45468;-78
2022/11/11 08:51:16;;;;;;;;;1.00;1.00;;;;;21.51;44.06;101228.88;5071346;28;45309;-77
2022/11/11 08:53:41;;;;;;;;;1.00;1.00;;;;;21.70;43.83;101227.00;5076059;27;45383;-77
2022/11/11 08:56:08;;;;;;;;;1.00;0.33;;;;;21.83;44.29;101236.69;5070544;28;47834;-71
2022/11/11 08:58:34;;;;;;;;;2.00;2.00;;;;;21.73;44.63;101242.06;5070896;28;45334;-76
2022/11/11 09:01:00;;;;;;;;;1.00;1.00;;;;;21.90;44.85;101216.25;5071975;28;45546;-71
2022/11/11 09:03:26;;;;;;;;;1.00;1.00;;;;;22.18;44.05;101240.00;5070445;28;45691;-80
2022/11/11 09:05:52;;;;;;;;;1.67;1.00;;;;;22.35;43.72;101229.28;5072301;28;45524;-77
2022/11/11 09:08:17;;;;;;;;;1.00;1.00;;;;;22.51;43.85;101233.59;5069985;28;45436;-77
2022/11/11 09:10:43;;;;;;;;;6.67;6.67;;;;;22.50;43.53;101225.59;5072028;27;45379;-77
2022/11/11 09:13:08;;;;;;;;;1.00;1.00;;;;;22.56;44.21;101230.88;5069416;27;45314;-77
2022/11/11 09:15:34;;;;;;;;;1.00;1.00;;;;;22.67;43.16;101231.66;5073049;28;45301;-77
2022/11/11 09:18:00;;;;;;;;;4.00;4.00;;;;;22.86;44.10;101231.50;5073031;28;45503;-75
2022/11/11 09:20:26;;;;;;;;;4.33;4.33;;;;;23.02;43.53;101226.03;5073536;28;45467;-78
2022/11/11 09:22:51;;;;;;;;;6.33;6.33;;;;;23.17;44.15;101221.44;5073322;28;45511;-78
2022/11/11 09:25:17;;;;;;;;;6.00;6.00;;;;;23.37;43.57;101218.53;5072780;28;45546;-73
2022/11/11 09:27:43;;;;;;;;;4.67;4.67;;;;;23.38;43.91;101210.50;5088885;27;45469;-74
2022/11/11 09:30:10;;;;;;;;;12.67;10.67;;;;;23.65;43.69;101216.38;5072502;28;45594;-72
2022/11/11 09:32:36;;;;;;;;;10.67;10.67;;;;;23.77;43.86;101215.31;5073614;28;45455;-73
2022/11/11 09:35:05;;;;;;;;;17.33;16.67;;;;;23.89;43.54;101212.50;5079906;27;45339;-76
2022/11/11 09:37:31;;;;;;;;;2.33;2.33;;;;;23.28;44.20;101207.97;5094196;27;45322;-76
2022/11/11 09:39:57;;;;;;;;;2.67;2.67;;;;;23.11;44.96;101208.19;5075474;27;45583;-77
2022/11/11 09:42:36;;;;;;;;;2.00;2.00;;;;;22.96;45.43;101206.50;5072430;27;45495;-77
2022/11/11 09:45:18;;;;;;;;;6.67;6.67;;;;;22.80;46.23;101213.78;5092461;27;46016;-77
2022/11/11 09:48:05;;;;;;;;;2.67;2.67;;;;;22.94;45.22;101210.97;5078267;27;45665;-79
2022/11/11 09:50:34;;;;;;;;;4.00;3.67;;;;;22.88;45.78;101205.72;5078135;28;45539;-79
2022/11/11 09:53:02;;;;;;;;;4.67;4.00;;;;;22.51;45.51;101204.31;5077159;28;45383;-78
2022/11/11 09:55:51;;;;;;;;;4.00;3.00;;;;;22.36;46.50;101200.00;5078646;28;45552;-79
2022/11/11 09:58:41;;;;;;;;;2.33;2.33;;;;;22.32;46.60;101203.59;5079314;28;45179;-79
2022/11/11 10:01:15;;;;;;;;;1.33;1.33;;;;;22.23;46.34;101195.63;5079636;27;45465;-79
2022/11/11 10:03:48;;;;;;;;;2.00;1.00;;;;;22.26;47.08;101200.06;5079010;28;45405;-78
2022/11/11 10:06:25;;;;;;;;;4.00;2.33;;;;;22.28;47.07;101191.16;5079239;28;46260;-79
2022/11/11 10:09:01;;;;;;;;;2.00;2.00;;;;;22.39;47.73;101196.44;5079478;27;45488;-77
2022/11/11 10:11:47;;;;;;;;;2.00;2.00;;;;;22.44;47.54;101190.16;5079188;27;45307;-75
2022/11/11 10:14:14;;;;;;;;;6.00;5.00;;;;;22.54;46.37;101190.06;5079273;28;45935;-76
2022/11/11 10:16:47;;;;;;;;;3.67;3.67;;;;;22.68;45.28;101182.84;5079098;28;45552;-76
2022/11/11 10:19:51;;;;;;;;;7.00;6.33;;;;;22.83;44.79;101172.00;5078986;28;45465;-76
2022/11/11 10:22:24;;;;;;;;;3.00;3.00;;;;;22.96;42.60;101174.53;5066214;28;45779;-76
2022/11/11 10:25:07;;;;;;;;;3.00;2.00;;;;;22.99;40.21;101170.06;5079016;28;45445;-77
2022/11/11 10:27:33;;;;;;;;;1.33;1.33;;;;;22.99;39.55;101174.53;5079154;28;47210;-76
2022/11/11 10:30:07;;;;;;;;;1.33;1.33;;;;;23.14;40.75;101181.47;5078602;28;45579;-76
2022/11/11 10:32:35;;;;;;;;;2.00;2.00;;;;;23.23;39.84;101176.03;5061229;28;45358;-76
2022/11/11 10:35:31;;;;;;;;;1.00;1.00;;;;;23.28;39.59;101178.63;5079427;28;45519;-76
2022/11/11 10:38:26;;;;;;;;;2.00;2.00;;;;;23.32;40.17;101180.41;5061980;28;46359;-70
2022/11/11 10:40:53;;;;;;;;;2.00;2.00;;;;;23.43;39.58;101173.13;5071341;28;45528;-71
2022/11/11 10:43:27;;;;;;;;;2.33;2.33;;;;;23.47;39.56;101169.50;5078920;28;45342;-71
2022/11/11 10:46:11;;;;;;;;;3.67;3.33;;;;;23.44;38.69;101166.91;5079090;28;45332;-71
2022/11/11 10:48:45;;;;;;;;;2.67;2.67;;;;;23.52;39.70;101167.66;5078636;28;46002;-72
2022/11/11 10:51:13;;;;;;;;;4.00;3.00;;;;;23.53;39.03;101166.75;5060236;28;45586;-72
2022/11/11 10:53:58;;;;;;;;;3.33;3.33;;;;;23.50;39.64;101163.28;5078322;28;45547;-73
2022/11/11 10:56:39;;;;;;;;;1.00;1.00;;;;;23.50;38.82;101157.94;5078500;28;45557;-74
2022/11/11 10:59:30;;;;;;;;;1.33;1.33;;;;;23.52;38.28;101153.47;5076070;27;45518;-73
2022/11/11 11:02:28;;;;;;;;;3.00;2.67;;;;;23.50;38.93;101156.16;5078518;28;45411;-73
2022/11/11 11:05:12;;;;;;;;;2.00;2.00;;;;;23.30;38.64;101139.50;5062030;28;45533;-74
2022/11/11 11:07:52;;;;;;;;;2.00;1.00;;;;;23.33;38.65;101132.38;5077127;28;45463;-73
2022/11/11 11:10:23;;;;;;;;;2.00;2.00;;;;;23.40;38.96;101135.84;5077975;28;45429;-73
2022/11/11 11:13:04;;;;;;;;;2.00;2.00;;;;;23.36;38.44;101142.13;5077648;28;45345;-75
2022/11/11 11:15:32;;;;;;;;;4.00;3.67;;;;;23.35;38.35;101135.88;5077065;28;45463;-74
2022/11/11 11:18:13;;;;;;;;;3.00;3.00;;;;;23.31;38.52;101123.50;5078542;28;45369;-70
2022/11/11 11:20:54;;;;;;;;;2.00;2.00;;;;;23.26;38.60;101127.13;5077739;28;45540;-73
2022/11/11 11:23:41;;;;;;;;;2.00;2.00;;;;;23.32;38.38;101127.94;5077713;28;45599;-74
2022/11/11 11:26:12;;;;;;;;;1.67;1.00;;;;;23.34;38.96;101115.47;5078769;28;45322;-74
2022/11/11 11:28:54;;;;;;;;;1.00;1.00;;;;;23.45;38.73;101125.97;5078916;27;45832;-73
2022/11/11 11:31:35;;;;;;;;;1.00;1.00;;;;;23.40;38.37;101130.53;5077943;28;46112;-73
2022/11/11 11:34:01;;;;;;;;;2.00;2.00;;;;;23.29;37.99;101114.66;5077868;28;45434;-74
2022/11/11 11:36:26;;;;;;;;;2.00;1.00;;;;;23.28;38.10;101110.25;5077428;28;45259;-73
2022/11/11 11:38:52;;;;;;;;;2.00;2.00;;;;;23.21;38.36;101105.88;5078355;28;45260;-74
2022/11/11 11:41:42;;;;;;;;;1.00;1.00;;;;;23.17;37.45;101118.34;5078053;28;45988;-72
2022/11/11 11:44:33;;;;;;;;;1.00;1.00;;;;;23.06;37.92;101104.31;5078306;28;45287;-75
2022/11/11 11:47:17;;;;;;;;;2.00;2.00;;;;;23.15;39.23;101106.84;5078193;28;45257;-75
2022/11/11 11:49:51;;;;;;;;;5.00;3.00;;;;;23.14;38.95;101097.09;5078136;28;45423;-74
2022/11/11 11:52:35;;;;;;;;;0.00;0.00;;;;;23.12;38.15;101098.91;5059417;28;46930;-75
2022/11/11 11:55:05;;;;;;;;;1.00;0.33;;;;;23.05;37.70;101085.66;5077483;28;45375;-72
2022/11/11 11:57:59;;;;;;;;;0.33;0.00;;;;;23.09;37.53;101085.59;5077826;28;45493;-72
2022/11/11 12:00:37;;;;;;;;;11.00;10.00;;;;;23.02;37.94;101086.59;5077631;28;45356;-72
2022/11/11 12:03:02;;;;;;;;;0.00;0.00;;;;;22.99;38.39;101087.47;5077312;28;45441;-71
2022/11/11 12:05:54;;;;;;;;;0.00;0.00;;;;;22.98;38.20;101084.84;5077548;27;45429;-76
2022/11/11 12:08:47;;;;;;;;;0.00;0.00;;;;;22.98;38.40;101085.72;5059354;28;45486;-75
2022/11/11 12:11:15;;;;;;;;;0.33;0.33;;;;;23.05;38.26;101083.00;5058923;28;45530;-75
2022/11/11 12:13:49;;;;;;;;;1.00;0.00;;;;;22.97;38.14;101070.63;5077148;28;46085;-75
2022/11/11 12:16:25;;;;;;;;;0.00;0.00;;;;;23.06;37.91;101076.75;5077510;28;45414;-75
2022/11/11 12:19:31;;;;;;;;;0.00;0.00;;;;;23.11;38.28;101081.13;5077508;28;45458;-78
2022/11/11 12:22:43;;;;;;;;;0.00;0.00;;;;;23.02;38.50;101075.94;5036966;28;45550;-76
2022/11/11 12:25:53;;;;;;;;;1.00;1.00;;;;;23.10;38.72;101073.16;5077364;28;45264;-78
2022/11/11 12:28:37;;;;;;;;;2.00;2.00;;;;;23.08;37.99;101086.53;5068251;28;45249;-79
2022/11/11 12:31:11;;;;;;;;;1.00;1.00;;;;;23.09;38.04;101072.28;5077089;27;45484;-76
2022/11/11 12:34:16;;;;;;;;;1.00;0.67;;;;;23.12;38.29;101085.56;5077647;28;45249;-78
2022/11/11 12:36:47;;;;;;;;;1.67;1.67;;;;;23.14;40.42;101073.09;5076941;28;45208;-76
2022/11/11 12:39:44;;;;;;;;;1.00;1.00;;;;;23.11;40.44;101082.91;5076790;28;45387;-77
2022/11/11 12:42:33;;;;;;;;;1.00;1.00;;;;;23.17;41.64;101088.16;5077408;28;45480;-78
2022/11/11 12:45:18;;;;;;;;;2.00;2.00;;;;;23.15;41.09;101080.19;5059058;28;45213;-79
2022/11/11 12:48:02;;;;;;;;;3.00;2.00;;;;;22.90;43.36;101082.28;5076851;28;46319;-78
2022/11/11 12:50:42;;;;;;;;;1.67;1.67;;;;;22.86;42.61;101079.66;5075496;28;45517;-76
2022/11/11 12:53:29;;;;;;;;;2.00;1.67;;;;;22.88;42.22;101072.50;5077249;28;45353;-76
2022/11/11 12:56:00;;;;;;;;;5.00;4.00;;;;;22.93;42.63;101074.22;5077217;28;45533;-79